sensor_id;sensor_type;location;lat;lon;timestamp;temperature;humidity
17891;DHT22;9071;48.220;14.480;2022-08-04T00:04:47;17.80;99.90
17891;DHT22;9071;48.220;14.480;2022-08-04T00:09:54;17.70;99.90
17891;DHT22;9071;48.220;14.480;2022-08-04T00:15:00;17.70;99.90
17891;DHT22;9071;48.220;14.480;2022-08-04T00:20:04;17.60;99.90
17891;DHT22;9071;48.220;14.480;2022-08-04T00:25:08;17.50;99.90
17891;DHT22;9071;48.220;14.480;2022-08-04T00:30:10;17.40;99.90
17891;DHT22;9071;48.220;14.480;2022-08-04T00:35:13;17.50;99.90
17891;DHT22;9071;48.220;14.480;2022-08-04T00:40:23;17.40;99.90
17891;DHT22;9071;48.220;14.480;2022-08-04T00:45:43;17.40;99.90
17891;DHT22;9071;48.220;14.480;2022-08-04T00:50:59;17.30;99.90
17891;DHT22;9071;48.220;14.480;2022-08-04T00:56:26;17.20;99.90
17891;DHT22;9071;48.220;14.480;2022-08-04T01:01:43;17.10;99.90
17891;DHT22;9071;48.220;14.480;2022-08-04T01:07:05;17.10;99.90
17891;DHT22;9071;48.220;14.480;2022-08-04T01:12:29;17.00;99.90
17891;DHT22;9071;48.220;14.480;2022-08-04T01:17:48;17.00;99.90
17891;DHT22;9071;48.220;14.480;2022-08-04T01:29:06;17.00;99.90
17891;DHT22;9071;48.220;14.480;2022-08-04T01:34:12;17.00;99.90
17891;DHT22;9071;48.220;14.480;2022-08-04T01:39:15;17.00;99.90
17891;DHT22;9071;48.220;14.480;2022-08-04T01:44:39;17.00;99.90
17891;DHT22;9071;48.220;14.480;2022-08-04T01:49:41;17.00;99.90
17891;DHT22;9071;48.220;14.480;2022-08-04T01:54:46;17.00;99.90
17891;DHT22;9071;48.220;14.480;2022-08-04T01:59:51;17.00;99.90
17891;DHT22;9071;48.220;14.480;2022-08-04T02:04:53;17.00;99.90
17891;DHT22;9071;48.220;14.480;2022-08-04T02:10:05;16.80;99.90
17891;DHT22;9071;48.220;14.480;2022-08-04T02:15:18;16.80;99.90
17891;DHT22;9071;48.220;14.480;2022-08-04T02:20:24;16.70;99.90
17891;DHT22;9071;48.220;14.480;2022-08-04T02:25:34;16.60;99.90
17891;DHT22;9071;48.220;14.480;2022-08-04T02:30:42;16.60;99.90
17891;DHT22;9071;48.220;14.480;2022-08-04T02:35:53;16.60;99.90
17891;DHT22;9071;48.220;14.480;2022-08-04T02:40:58;16.50;99.90
17891;DHT22;9071;48.220;14.480;2022-08-04T02:46:04;16.50;99.90
17891;DHT22;9071;48.220;14.480;2022-08-04T02:51:07;16.50;99.90
17891;DHT22;9071;48.220;14.480;2022-08-04T02:56:11;16.50;99.90
17891;DHT22;9071;48.220;14.480;2022-08-04T03:01:16;16.50;99.90
17891;DHT22;9071;48.220;14.480;2022-08-04T03:12:11;16.40;99.90
17891;DHT22;9071;48.220;14.480;2022-08-04T03:29:13;16.20;99.90
17891;DHT22;9071;48.220;14.480;2022-08-04T03:34:32;16.10;99.90
17891;DHT22;9071;48.220;14.480;2022-08-04T03:40:02;16.20;99.90
17891;DHT22;9071;48.220;14.480;2022-08-04T03:50:59;16.10;99.90
17891;DHT22;9071;48.220;14.480;2022-08-04T03:56:45;16.00;99.90
17891;DHT22;9071;48.220;14.480;2022-08-04T04:02:17;16.00;99.90
17891;DHT22;9071;48.220;14.480;2022-08-04T04:07:58;16.10;99.90
17891;DHT22;9071;48.220;14.480;2022-08-04T04:13:39;16.20;99.90
17891;DHT22;9071;48.220;14.480;2022-08-04T04:19:19;16.30;99.90
17891;DHT22;9071;48.220;14.480;2022-08-04T04:30:07;16.60;99.90
17891;DHT22;9071;48.220;14.480;2022-08-04T04:35:20;16.70;99.90
17891;DHT22;9071;48.220;14.480;2022-08-04T04:40:33;16.80;99.90
17891;DHT22;9071;48.220;14.480;2022-08-04T04:45:39;17.00;99.90
17891;DHT22;9071;48.220;14.480;2022-08-04T04:50:54;17.10;99.90
17891;DHT22;9071;48.220;14.480;2022-08-04T04:56:04;17.20;99.90
17891;DHT22;9071;48.220;14.480;2022-08-04T05:07:25;17.50;99.90
17891;DHT22;9071;48.220;14.480;2022-08-04T05:13:03;17.80;99.90
17891;DHT22;9071;48.220;14.480;2022-08-04T05:18:25;18.00;99.90
17891;DHT22;9071;48.220;14.480;2022-08-04T05:23:31;18.10;99.90
17891;DHT22;9071;48.220;14.480;2022-08-04T05:28:38;18.40;99.90
17891;DHT22;9071;48.220;14.480;2022-08-04T05:33:46;18.80;99.90
17891;DHT22;9071;48.220;14.480;2022-08-04T05:38:53;20.90;99.90
17891;DHT22;9071;48.220;14.480;2022-08-04T05:44:00;23.50;99.90
17891;DHT22;9071;48.220;14.480;2022-08-04T05:49:03;26.00;99.90
17891;DHT22;9071;48.220;14.480;2022-08-04T05:54:09;27.40;99.90
17891;DHT22;9071;48.220;14.480;2022-08-04T05:59:11;29.20;99.90
17891;DHT22;9071;48.220;14.480;2022-08-04T06:04:16;30.30;99.90
17891;DHT22;9071;48.220;14.480;2022-08-04T06:09:20;31.30;99.90
17891;DHT22;9071;48.220;14.480;2022-08-04T06:14:22;32.20;99.90
17891;DHT22;9071;48.220;14.480;2022-08-04T06:19:26;32.90;99.90
17891;DHT22;9071;48.220;14.480;2022-08-04T06:24:32;33.20;99.90
17891;DHT22;9071;48.220;14.480;2022-08-04T06:29:35;31.90;99.90
17891;DHT22;9071;48.220;14.480;2022-08-04T06:34:41;32.50;99.90
17891;DHT22;9071;48.220;14.480;2022-08-04T06:39:45;33.20;99.90
17891;DHT22;9071;48.220;14.480;2022-08-04T06:44:54;33.30;99.90
17891;DHT22;9071;48.220;14.480;2022-08-04T06:49:57;34.20;99.90
17891;DHT22;9071;48.220;14.480;2022-08-04T06:55:03;34.50;99.90
17891;DHT22;9071;48.220;14.480;2022-08-04T07:00:07;34.60;99.90
17891;DHT22;9071;48.220;14.480;2022-08-04T07:05:11;34.60;99.90
17891;DHT22;9071;48.220;14.480;2022-08-04T07:10:16;35.20;99.90
17891;DHT22;9071;48.220;14.480;2022-08-04T07:15:19;35.40;99.90
17891;DHT22;9071;48.220;14.480;2022-08-04T07:20:22;34.90;99.90
17891;DHT22;9071;48.220;14.480;2022-08-04T07:25:26;35.90;99.90
17891;DHT22;9071;48.220;14.480;2022-08-04T07:30:29;35.40;99.90
17891;DHT22;9071;48.220;14.480;2022-08-04T07:35:33;35.30;99.90
17891;DHT22;9071;48.220;14.480;2022-08-04T07:40:37;33.30;99.90
17891;DHT22;9071;48.220;14.480;2022-08-04T07:45:39;34.50;99.90
17891;DHT22;9071;48.220;14.480;2022-08-04T07:50:42;34.00;99.90
17891;DHT22;9071;48.220;14.480;2022-08-04T07:55:46;34.30;99.90
17891;DHT22;9071;48.220;14.480;2022-08-04T08:00:49;33.70;99.90
17891;DHT22;9071;48.220;14.480;2022-08-04T08:05:52;33.00;99.90
17891;DHT22;9071;48.220;14.480;2022-08-04T08:10:56;32.80;99.90
17891;DHT22;9071;48.220;14.480;2022-08-04T08:15:58;33.10;99.90
17891;DHT22;9071;48.220;14.480;2022-08-04T08:21:01;32.20;99.90
17891;DHT22;9071;48.220;14.480;2022-08-04T08:26:05;30.20;99.90
17891;DHT22;9071;48.220;14.480;2022-08-04T08:31:07;28.90;99.90
17891;DHT22;9071;48.220;14.480;2022-08-04T08:36:15;28.20;99.90
17891;DHT22;9071;48.220;14.480;2022-08-04T08:47:03;28.00;99.90
17891;DHT22;9071;48.220;14.480;2022-08-04T08:52:23;28.20;99.90
17891;DHT22;9071;48.220;14.480;2022-08-04T08:57:51;28.00;99.90
17891;DHT22;9071;48.220;14.480;2022-08-04T09:08:54;27.80;99.90
17891;DHT22;9071;48.220;14.480;2022-08-04T09:14:06;27.90;99.90
17891;DHT22;9071;48.220;14.480;2022-08-04T09:19:16;27.90;99.90
17891;DHT22;9071;48.220;14.480;2022-08-04T09:24:24;28.00;99.90
17891;DHT22;9071;48.220;14.480;2022-08-04T09:29:39;28.30;99.90
17891;DHT22;9071;48.220;14.480;2022-08-04T09:34:50;28.70;99.90
17891;DHT22;9071;48.220;14.480;2022-08-04T09:40:02;28.90;99.90
17891;DHT22;9071;48.220;14.480;2022-08-04T09:45:14;28.80;99.90
17891;DHT22;9071;48.220;14.480;2022-08-04T09:50:28;28.90;99.90
17891;DHT22;9071;48.220;14.480;2022-08-04T09:55:40;29.10;99.90
17891;DHT22;9071;48.220;14.480;2022-08-04T10:00:59;29.20;99.90
17891;DHT22;9071;48.220;14.480;2022-08-04T10:06:30;29.50;99.90
17891;DHT22;9071;48.220;14.480;2022-08-04T10:11:44;29.60;99.90
17891;DHT22;9071;48.220;14.480;2022-08-04T10:17:02;29.70;99.90
17891;DHT22;9071;48.220;14.480;2022-08-04T10:22:14;29.70;99.90
17891;DHT22;9071;48.220;14.480;2022-08-04T10:27:24;29.90;99.90
17891;DHT22;9071;48.220;14.480;2022-08-04T10:32:36;30.10;99.90
17891;DHT22;9071;48.220;14.480;2022-08-04T10:37:46;30.10;99.90
17891;DHT22;9071;48.220;14.480;2022-08-04T10:42:57;30.30;99.90
17891;DHT22;9071;48.220;14.480;2022-08-04T10:48:06;30.60;99.90
17891;DHT22;9071;48.220;14.480;2022-08-04T10:53:18;30.70;99.90
17891;DHT22;9071;48.220;14.480;2022-08-04T10:58:23;30.90;99.90
17891;DHT22;9071;48.220;14.480;2022-08-04T11:03:33;31.00;99.90
17891;DHT22;9071;48.220;14.480;2022-08-04T11:08:43;31.00;99.90
17891;DHT22;9071;48.220;14.480;2022-08-04T11:13:51;30.90;99.90
17891;DHT22;9071;48.220;14.480;2022-08-04T11:19:05;31.10;99.90
17891;DHT22;9071;48.220;14.480;2022-08-04T11:24:15;31.30;99.90
17891;DHT22;9071;48.220;14.480;2022-08-04T11:29:24;31.20;99.90
17891;DHT22;9071;48.220;14.480;2022-08-04T11:34:30;31.20;99.90
17891;DHT22;9071;48.220;14.480;2022-08-04T11:39:36;31.30;99.90
17891;DHT22;9071;48.220;14.480;2022-08-04T11:44:42;31.20;99.90
17891;DHT22;9071;48.220;14.480;2022-08-04T11:49:51;31.10;99.90
17891;DHT22;9071;48.220;14.480;2022-08-04T11:54:55;31.40;99.90
17891;DHT22;9071;48.220;14.480;2022-08-04T11:59:58;31.80;99.90
17891;DHT22;9071;48.220;14.480;2022-08-04T12:05:06;31.70;99.90
17891;DHT22;9071;48.220;14.480;2022-08-04T12:10:17;31.80;99.90
17891;DHT22;9071;48.220;14.480;2022-08-04T12:15:25;31.80;99.90
17891;DHT22;9071;48.220;14.480;2022-08-04T12:20:35;31.70;99.90
17891;DHT22;9071;48.220;14.480;2022-08-04T12:25:44;31.80;99.90
17891;DHT22;9071;48.220;14.480;2022-08-04T12:30:51;31.90;99.90
17891;DHT22;9071;48.220;14.480;2022-08-04T12:35:59;31.90;99.90
17891;DHT22;9071;48.220;14.480;2022-08-04T12:41:02;32.20;99.90
17891;DHT22;9071;48.220;14.480;2022-08-04T12:46:07;32.00;99.90
17891;DHT22;9071;48.220;14.480;2022-08-04T12:51:11;32.00;99.90
17891;DHT22;9071;48.220;14.480;2022-08-04T12:56:15;32.10;99.90
17891;DHT22;9071;48.220;14.480;2022-08-04T13:01:20;32.30;99.90
17891;DHT22;9071;48.220;14.480;2022-08-04T13:06:27;32.30;99.90
17891;DHT22;9071;48.220;14.480;2022-08-04T13:11:34;32.20;99.90
17891;DHT22;9071;48.220;14.480;2022-08-04T13:16:37;32.30;99.90
17891;DHT22;9071;48.220;14.480;2022-08-04T13:21:42;32.60;99.90
17891;DHT22;9071;48.220;14.480;2022-08-04T13:26:49;32.70;99.90
17891;DHT22;9071;48.220;14.480;2022-08-04T13:31:54;32.80;99.90
17891;DHT22;9071;48.220;14.480;2022-08-04T13:36:58;32.90;99.90
17891;DHT22;9071;48.220;14.480;2022-08-04T13:42:09;32.70;99.90
17891;DHT22;9071;48.220;14.480;2022-08-04T13:47:18;32.50;99.90
17891;DHT22;9071;48.220;14.480;2022-08-04T13:52:24;32.60;99.90
17891;DHT22;9071;48.220;14.480;2022-08-04T13:57:30;32.80;99.90
17891;DHT22;9071;48.220;14.480;2022-08-04T14:02:38;32.90;99.90
17891;DHT22;9071;48.220;14.480;2022-08-04T14:07:45;32.80;99.90
17891;DHT22;9071;48.220;14.480;2022-08-04T14:12:50;32.80;99.90
17891;DHT22;9071;48.220;14.480;2022-08-04T14:17:53;32.80;99.90
17891;DHT22;9071;48.220;14.480;2022-08-04T14:23:00;32.80;99.90
17891;DHT22;9071;48.220;14.480;2022-08-04T14:28:02;33.00;99.90
17891;DHT22;9071;48.220;14.480;2022-08-04T14:33:07;33.00;99.90
17891;DHT22;9071;48.220;14.480;2022-08-04T14:38:11;32.90;99.90
17891;DHT22;9071;48.220;14.480;2022-08-04T14:43:16;33.00;99.90
17891;DHT22;9071;48.220;14.480;2022-08-04T14:48:19;33.10;99.90
17891;DHT22;9071;48.220;14.480;2022-08-04T14:53:24;33.10;99.90
17891;DHT22;9071;48.220;14.480;2022-08-04T14:58:30;32.70;99.90
17891;DHT22;9071;48.220;14.480;2022-08-04T15:03:33;32.40;99.90
17891;DHT22;9071;48.220;14.480;2022-08-04T15:08:36;32.40;99.90
17891;DHT22;9071;48.220;14.480;2022-08-04T15:13:39;32.50;99.90
17891;DHT22;9071;48.220;14.480;2022-08-04T15:18:41;32.70;99.90
17891;DHT22;9071;48.220;14.480;2022-08-04T15:23:45;32.70;99.90
17891;DHT22;9071;48.220;14.480;2022-08-04T15:28:50;32.70;99.90
17891;DHT22;9071;48.220;14.480;2022-08-04T15:33:54;32.60;99.90
17891;DHT22;9071;48.220;14.480;2022-08-04T15:39:04;32.50;99.90
17891;DHT22;9071;48.220;14.480;2022-08-04T15:44:35;32.30;99.90
17891;DHT22;9071;48.220;14.480;2022-08-04T15:50:01;32.10;99.90
17891;DHT22;9071;48.220;14.480;2022-08-04T15:55:33;32.30;99.90
17891;DHT22;9071;48.220;14.480;2022-08-04T16:01:12;32.30;99.90
17891;DHT22;9071;48.220;14.480;2022-08-04T16:06:40;32.20;99.90
17891;DHT22;9071;48.220;14.480;2022-08-04T16:11:44;32.10;99.90
17891;DHT22;9071;48.220;14.480;2022-08-04T16:16:47;32.00;99.90
17891;DHT22;9071;48.220;14.480;2022-08-04T16:21:51;31.90;99.90
17891;DHT22;9071;48.220;14.480;2022-08-04T16:26:55;31.90;99.90
17891;DHT22;9071;48.220;14.480;2022-08-04T16:32:08;31.80;99.90
17891;DHT22;9071;48.220;14.480;2022-08-04T16:37:12;31.70;99.90
17891;DHT22;9071;48.220;14.480;2022-08-04T16:42:36;31.60;99.90
17891;DHT22;9071;48.220;14.480;2022-08-04T16:47:59;31.50;99.90
17891;DHT22;9071;48.220;14.480;2022-08-04T16:53:09;31.50;99.90
17891;DHT22;9071;48.220;14.480;2022-08-04T16:58:15;31.50;99.90
17891;DHT22;9071;48.220;14.480;2022-08-04T17:03:17;31.50;99.90
17891;DHT22;9071;48.220;14.480;2022-08-04T17:08:19;31.40;99.90
17891;DHT22;9071;48.220;14.480;2022-08-04T17:13:34;31.30;99.90
17891;DHT22;9071;48.220;14.480;2022-08-04T17:18:37;31.30;99.90
17891;DHT22;9071;48.220;14.480;2022-08-04T17:23:41;31.10;99.90
17891;DHT22;9071;48.220;14.480;2022-08-04T17:28:47;31.00;99.90
17891;DHT22;9071;48.220;14.480;2022-08-04T17:33:51;30.90;99.90
17891;DHT22;9071;48.220;14.480;2022-08-04T17:38:55;30.60;99.90
17891;DHT22;9071;48.220;14.480;2022-08-04T17:44:01;30.40;99.90
17891;DHT22;9071;48.220;14.480;2022-08-04T17:49:08;30.20;99.90
17891;DHT22;9071;48.220;14.480;2022-08-04T17:54:13;30.10;99.90
17891;DHT22;9071;48.220;14.480;2022-08-04T17:59:21;29.80;99.90
17891;DHT22;9071;48.220;14.480;2022-08-04T18:04:25;29.50;99.90
17891;DHT22;9071;48.220;14.480;2022-08-04T18:09:29;29.20;99.90
17891;DHT22;9071;48.220;14.480;2022-08-04T18:14:45;28.90;99.90
17891;DHT22;9071;48.220;14.480;2022-08-04T18:19:51;28.60;99.90
17891;DHT22;9071;48.220;14.480;2022-08-04T18:24:53;28.30;99.90
17891;DHT22;9071;48.220;14.480;2022-08-04T18:29:57;28.00;99.90
17891;DHT22;9071;48.220;14.480;2022-08-04T18:35:00;27.70;99.90
17891;DHT22;9071;48.220;14.480;2022-08-04T18:40:02;27.40;99.90
17891;DHT22;9071;48.220;14.480;2022-08-04T18:45:07;27.10;99.90
17891;DHT22;9071;48.220;14.480;2022-08-04T18:50:11;26.80;99.90
17891;DHT22;9071;48.220;14.480;2022-08-04T18:55:13;26.70;99.90
17891;DHT22;9071;48.220;14.480;2022-08-04T19:00:17;26.50;99.90
17891;DHT22;9071;48.220;14.480;2022-08-04T19:05:19;26.20;99.90
17891;DHT22;9071;48.220;14.480;2022-08-04T19:10:21;25.90;99.90
17891;DHT22;9071;48.220;14.480;2022-08-04T19:15:25;25.70;99.90
17891;DHT22;9071;48.220;14.480;2022-08-04T19:20:30;25.50;99.90
17891;DHT22;9071;48.220;14.480;2022-08-04T19:25:32;25.30;99.90
17891;DHT22;9071;48.220;14.480;2022-08-04T19:30:38;25.00;99.90
17891;DHT22;9071;48.220;14.480;2022-08-04T19:35:40;24.90;99.90
17891;DHT22;9071;48.220;14.480;2022-08-04T19:40:43;24.80;99.90
17891;DHT22;9071;48.220;14.480;2022-08-04T19:45:47;24.60;99.90
17891;DHT22;9071;48.220;14.480;2022-08-04T19:50:49;24.40;99.90
17891;DHT22;9071;48.220;14.480;2022-08-04T19:55:51;24.40;99.90
17891;DHT22;9071;48.220;14.480;2022-08-04T20:00:55;24.30;99.90
17891;DHT22;9071;48.220;14.480;2022-08-04T20:05:57;24.10;99.90
17891;DHT22;9071;48.220;14.480;2022-08-04T20:10:59;23.90;99.90
17891;DHT22;9071;48.220;14.480;2022-08-04T20:16:03;23.70;99.90
17891;DHT22;9071;48.220;14.480;2022-08-04T20:21:05;23.50;99.90
17891;DHT22;9071;48.220;14.480;2022-08-04T20:26:07;23.30;99.90
17891;DHT22;9071;48.220;14.480;2022-08-04T20:31:11;23.10;99.90
17891;DHT22;9071;48.220;14.480;2022-08-04T20:36:14;23.00;99.90
17891;DHT22;9071;48.220;14.480;2022-08-04T20:41:16;22.80;99.90
17891;DHT22;9071;48.220;14.480;2022-08-04T20:46:19;22.70;99.90
17891;DHT22;9071;48.220;14.480;2022-08-04T20:51:22;22.60;99.90
17891;DHT22;9071;48.220;14.480;2022-08-04T20:56:28;22.50;99.90
17891;DHT22;9071;48.220;14.480;2022-08-04T21:01:32;22.50;99.90
17891;DHT22;9071;48.220;14.480;2022-08-04T21:06:34;22.40;99.90
17891;DHT22;9071;48.220;14.480;2022-08-04T21:11:36;22.30;99.90
17891;DHT22;9071;48.220;14.480;2022-08-04T21:16:39;22.20;99.90
17891;DHT22;9071;48.220;14.480;2022-08-04T21:21:42;22.10;99.90
17891;DHT22;9071;48.220;14.480;2022-08-04T21:26:46;21.90;99.90
17891;DHT22;9071;48.220;14.480;2022-08-04T21:31:50;21.80;99.90
17891;DHT22;9071;48.220;14.480;2022-08-04T21:36:52;21.80;99.90
17891;DHT22;9071;48.220;14.480;2022-08-04T21:41:54;21.60;99.90
17891;DHT22;9071;48.220;14.480;2022-08-04T21:46:58;21.60;99.90
17891;DHT22;9071;48.220;14.480;2022-08-04T21:52:00;21.40;99.90
17891;DHT22;9071;48.220;14.480;2022-08-04T21:57:02;21.30;99.90
17891;DHT22;9071;48.220;14.480;2022-08-04T22:02:05;21.20;99.90
17891;DHT22;9071;48.220;14.480;2022-08-04T22:07:08;21.10;99.90
17891;DHT22;9071;48.220;14.480;2022-08-04T22:12:10;21.10;99.90
17891;DHT22;9071;48.220;14.480;2022-08-04T22:17:13;21.00;99.90
17891;DHT22;9071;48.220;14.480;2022-08-04T22:22:15;20.90;99.90
17891;DHT22;9071;48.220;14.480;2022-08-04T22:27:18;20.90;99.90
17891;DHT22;9071;48.220;14.480;2022-08-04T22:32:35;20.80;99.90
17891;DHT22;9071;48.220;14.480;2022-08-04T22:37:37;20.70;99.90
17891;DHT22;9071;48.220;14.480;2022-08-04T22:42:39;20.50;99.90
17891;DHT22;9071;48.220;14.480;2022-08-04T22:47:43;20.50;99.90
17891;DHT22;9071;48.220;14.480;2022-08-04T22:52:45;20.40;99.90
17891;DHT22;9071;48.220;14.480;2022-08-04T22:57:47;20.30;99.90
17891;DHT22;9071;48.220;14.480;2022-08-04T23:02:50;20.30;99.90
17891;DHT22;9071;48.220;14.480;2022-08-04T23:07:52;20.20;99.90
17891;DHT22;9071;48.220;14.480;2022-08-04T23:12:55;20.10;99.90
17891;DHT22;9071;48.220;14.480;2022-08-04T23:17:58;20.10;99.90
17891;DHT22;9071;48.220;14.480;2022-08-04T23:23:00;20.00;99.90
17891;DHT22;9071;48.220;14.480;2022-08-04T23:28:03;19.90;99.90
17891;DHT22;9071;48.220;14.480;2022-08-04T23:33:06;19.90;99.90
17891;DHT22;9071;48.220;14.480;2022-08-04T23:38:08;19.80;99.90
17891;DHT22;9071;48.220;14.480;2022-08-04T23:43:10;19.80;99.90
17891;DHT22;9071;48.220;14.480;2022-08-04T23:48:14;19.70;99.90
17891;DHT22;9071;48.220;14.480;2022-08-04T23:53:16;19.70;99.90
17891;DHT22;9071;48.220;14.480;2022-08-04T23:58:18;19.60;99.90
